Time,TemperatureF,DewpointF,PressureIn,WindDirection,WindDirectionDegrees,WindSpeedMPH,WindSpeedGustMPH,Humidity,HourlyPrecipIn,Conditions,Clouds,dailyrainin,SolarRadiationWatts/m^2,SoftwareType,DateUTC
2013-03-18 00:02:00,57.6,52.2,29.66,NW,325,0.0,0.9,82,0.00,,,0.00,0.0,meteobridge,2013-03-18 05:02:00,
2013-03-18 00:07:00,57.6,52.2,29.66,NW,325,0.9,2.9,82,0.00,,,0.00,0.0,meteobridge,2013-03-18 05:07:00,
2013-03-18 00:12:00,57.4,52.0,29.66,NW,325,0.0,0.0,82,0.00,,,0.00,0.0,meteobridge,2013-03-18 05:12:00,
2013-03-18 00:17:00,57.0,51.6,29.66,NW,325,0.0,0.0,82,0.00,,,0.00,0.0,meteobridge,2013-03-18 05:17:00,
2013-03-18 00:22:00,57.0,52.0,29.66,NW,325,0.0,0.0,83,0.00,,,0.00,0.0,meteobridge,2013-03-18 05:22:00,
2013-03-18 00:28:00,56.8,51.8,29.66,NW,325,0.0,2.0,83,0.00,,,0.00,0.0,meteobridge,2013-03-18 05:28:00,
2013-03-18 00:33:00,56.7,51.6,29.66,NW,325,0.9,2.9,83,0.00,,,0.00,0.0,meteobridge,2013-03-18 05:33:00,
2013-03-18 00:38:00,56.5,51.4,29.67,NW,325,2.0,2.9,83,0.00,,,0.00,0.0,meteobridge,2013-03-18 05:38:00,
2013-03-18 00:43:00,56.5,51.6,29.67,NW,326,2.9,6.0,84,0.00,,,0.00,0.0,meteobridge,2013-03-18 05:43:00,
2013-03-18 00:48:00,56.7,51.8,29.67,NW,326,2.9,4.9,84,0.00,,,0.00,0.0,meteobridge,2013-03-18 05:48:00,
2013-03-18 00:53:00,56.1,51.1,29.67,NW,326,4.9,4.9,83,0.00,,,0.00,0.0,meteobridge,2013-03-18 05:53:00,
2013-03-18 00:58:00,55.6,50.5,29.67,NW,326,2.0,2.9,83,0.00,,,0.00,0.0,meteobridge,2013-03-18 05:58:00,
2013-03-18 01:03:00,55.0,50.4,29.66,NNW,327,4.0,4.9,84,0.00,,,0.00,0.0,meteobridge,2013-03-18 06:03:00,
2013-03-18 01:08:00,55.2,50.7,29.66,NNW,331,0.0,2.9,85,0.00,,,0.00,0.0,meteobridge,2013-03-18 06:08:00,
2013-03-18 01:14:00,55.0,50.4,29.65,NNW,342,0.9,2.9,84,0.00,,,0.00,0.0,meteobridge,2013-03-18 06:14:00,
2013-03-18 01:19:00,54.9,50.4,29.65,ESE,110,2.9,4.9,85,0.00,,,0.00,0.0,meteobridge,2013-03-18 06:19:00,
2013-03-18 01:24:00,54.9,50.4,29.65,ESE,110,0.9,0.9,85,0.00,,,0.00,0.0,meteobridge,2013-03-18 06:24:00,
2013-03-18 01:29:00,54.9,50.7,29.65,ESE,110,0.0,0.9,86,0.00,,,0.00,0.0,meteobridge,2013-03-18 06:29:00,
2013-03-18 01:34:00,55.0,50.9,29.65,ESE,110,0.0,0.0,86,0.00,,,0.00,0.0,meteobridge,2013-03-18 06:34:00,
2013-03-18 01:39:00,55.0,50.9,29.65,ESE,110,2.0,4.0,86,0.00,,,0.00,0.0,meteobridge,2013-03-18 06:39:00,
2013-03-18 01:44:00,55.0,50.9,29.64,ESE,117,4.0,6.0,86,0.00,,,0.00,0.0,meteobridge,2013-03-18 06:44:00,
2013-03-18 01:49:00,55.0,50.9,29.66,SSE,149,8.1,8.1,86,0.00,,,0.00,0.0,meteobridge,2013-03-18 06:49:00,
2013-03-18 01:54:00,55.2,51.4,29.67,SSE,153,4.0,6.0,87,0.00,,,0.00,0.0,meteobridge,2013-03-18 06:54:00,
2013-03-18 01:59:00,55.6,51.4,29.67,SSE,152,6.0,6.9,86,0.00,,,0.00,0.0,meteobridge,2013-03-18 06:59:00,
2013-03-18 02:04:00,55.6,51.4,29.67,SSE,154,4.0,8.1,86,0.00,,,0.00,0.0,meteobridge,2013-03-18 07:04:00,
2013-03-18 02:09:00,55.8,51.6,29.66,SSE,153,4.9,6.0,86,0.00,,,0.00,0.0,meteobridge,2013-03-18 07:09:00,
2013-03-18 02:15:00,55.9,51.8,29.67,SSE,155,2.9,4.9,86,0.00,,,0.00,0.0,meteobridge,2013-03-18 07:15:00,
2013-03-18 02:20:00,56.3,52.2,29.69,SSE,157,2.0,2.9,86,0.00,,,0.00,0.0,meteobridge,2013-03-18 07:20:00,
2013-03-18 02:25:00,55.9,51.4,29.67,SSE,157,0.0,0.9,85,0.00,,,0.00,0.0,meteobridge,2013-03-18 07:25:00,
2013-03-18 02:30:00,55.8,51.6,29.63,SE,132,10.1,10.1,86,0.00,,,0.00,0.0,meteobridge,2013-03-18 07:30:00,
2013-03-18 02:35:00,55.6,51.4,29.64,SSE,150,10.1,13.0,86,0.00,,,0.00,0.0,meteobridge,2013-03-18 07:35:00,
2013-03-18 02:40:00,55.9,51.8,29.65,SSE,164,8.9,8.9,86,0.00,,,0.00,0.0,meteobridge,2013-03-18 07:40:00,
2013-03-18 02:45:00,56.5,52.3,29.65,SSE,160,6.9,12.1,86,0.00,,,0.00,0.0,meteobridge,2013-03-18 07:45:00,
2013-03-18 02:50:00,56.8,52.3,29.66,South,186,16.1,16.1,85,0.00,,,0.00,0.0,meteobridge,2013-03-18 07:50:00,
2013-03-18 02:55:00,57.4,52.5,29.62,SSE,150,15.0,17.0,84,0.00,,,0.00,0.0,meteobridge,2013-03-18 07:55:00,
2013-03-18 03:00:00,57.6,52.7,29.62,SSE,157,16.1,21.0,84,0.00,,,0.00,0.0,meteobridge,2013-03-18 08:00:00,
2013-03-18 03:05:00,57.9,52.5,29.62,SSE,154,13.0,13.0,82,0.00,,,0.00,0.0,meteobridge,2013-03-18 08:05:00,
2013-03-18 03:10:00,58.1,52.3,29.61,SSE,160,8.9,14.1,81,0.00,,,0.00,0.0,meteobridge,2013-03-18 08:10:00,
2013-03-18 03:15:00,58.3,52.2,29.60,SSE,156,15.0,15.0,80,0.00,,,0.00,0.0,meteobridge,2013-03-18 08:15:00,
2013-03-18 03:20:00,58.6,52.5,29.60,SSE,155,8.1,13.0,80,0.00,,,0.00,0.0,meteobridge,2013-03-18 08:20:00,
2013-03-18 03:25:00,58.5,52.3,29.60,SSE,156,11.0,13.0,80,0.00,,,0.00,0.0,meteobridge,2013-03-18 08:25:00,
2013-03-18 03:30:00,58.5,52.3,29.60,SE,143,10.1,11.0,80,0.00,,,0.00,0.0,meteobridge,2013-03-18 08:30:00,
2013-03-18 03:35:00,58.5,52.3,29.59,SSE,156,6.0,11.0,80,0.00,,,0.00,0.0,meteobridge,2013-03-18 08:35:00,
2013-03-18 03:40:00,58.3,52.2,29.59,SE,138,6.9,10.1,80,0.00,,,0.00,0.0,meteobridge,2013-03-18 08:40:00,
2013-03-18 03:45:00,58.3,52.2,29.59,SE,140,4.9,6.9,80,0.00,,,0.00,0.0,meteobridge,2013-03-18 08:45:00,
2013-03-18 03:50:00,57.9,51.8,29.60,SSE,156,2.9,4.9,80,0.00,,,0.00,0.0,meteobridge,2013-03-18 08:50:00,
2013-03-18 03:55:00,57.9,52.2,29.60,South,169,2.9,4.9,81,0.00,,,0.00,0.0,meteobridge,2013-03-18 08:55:00,
2013-03-18 04:00:00,57.9,52.5,29.61,South,181,4.0,8.9,82,0.00,,,0.00,0.0,meteobridge,2013-03-18 09:00:00,
2013-03-18 04:05:00,58.3,52.9,29.60,South,169,4.9,11.0,82,0.00,,,0.00,0.0,meteobridge,2013-03-18 09:05:00,
2013-03-18 04:10:00,58.6,53.2,29.61,South,179,8.9,10.1,82,0.00,,,0.00,0.0,meteobridge,2013-03-18 09:10:00,
2013-03-18 04:16:00,59.0,53.2,29.61,South,180,6.0,8.9,81,0.00,,,0.00,0.0,meteobridge,2013-03-18 09:16:00,
2013-03-18 04:21:00,59.2,53.4,29.61,South,180,4.9,10.1,81,0.00,,,0.00,0.0,meteobridge,2013-03-18 09:21:00,
2013-03-18 04:26:00,59.4,53.8,29.61,South,191,8.9,8.9,82,0.00,,,0.00,0.0,meteobridge,2013-03-18 09:26:00,
2013-03-18 04:31:00,59.7,54.1,29.61,South,187,6.9,11.0,82,0.00,,,0.00,0.0,meteobridge,2013-03-18 09:31:00,
2013-03-18 04:36:00,60.1,54.9,29.61,South,187,8.9,12.1,83,0.00,,,0.00,0.0,meteobridge,2013-03-18 09:36:00,
2013-03-18 04:41:00,61.0,56.5,29.61,South,186,8.9,15.0,85,0.00,,,0.00,0.0,meteobridge,2013-03-18 09:41:00,
2013-03-18 04:46:00,61.9,57.4,29.60,SSW,194,12.1,14.1,85,0.00,,,0.00,0.0,meteobridge,2013-03-18 09:46:00,
2013-03-18 04:51:00,62.8,58.5,29.60,South,182,10.1,17.9,86,0.00,,,0.00,0.0,meteobridge,2013-03-18 09:51:00,
2013-03-18 04:56:00,63.7,59.7,29.60,SSW,194,11.0,19.9,87,0.00,,,0.00,0.0,meteobridge,2013-03-18 09:56:00,
2013-03-18 05:02:00,64.0,59.7,29.59,SSW,192,13.0,17.0,86,0.00,,,0.00,0.0,meteobridge,2013-03-18 10:02:00,
2013-03-18 05:07:00,64.2,60.3,29.60,SSW,199,16.1,17.9,87,0.00,,,0.00,0.0,meteobridge,2013-03-18 10:07:00,
2013-03-18 05:12:00,64.4,60.4,29.60,South,180,8.1,16.1,87,0.00,,,0.00,0.0,meteobridge,2013-03-18 10:12:00,
2013-03-18 05:17:00,64.6,60.6,29.60,SSW,205,17.9,19.9,87,0.00,,,0.00,0.0,meteobridge,2013-03-18 10:17:00,
2013-03-18 05:22:00,64.8,60.8,29.59,South,191,13.0,19.9,87,0.00,,,0.00,0.0,meteobridge,2013-03-18 10:22:00,
2013-03-18 05:27:00,64.8,60.8,29.59,SSW,195,11.0,19.0,87,0.00,,,0.00,0.0,meteobridge,2013-03-18 10:27:00,
2013-03-18 05:32:00,64.8,61.2,29.59,South,191,13.0,21.0,88,0.00,,,0.00,0.0,meteobridge,2013-03-18 10:32:00,
2013-03-18 05:37:00,64.8,61.2,29.60,South,173,14.1,21.0,88,0.00,,,0.00,0.0,meteobridge,2013-03-18 10:37:00,
2013-03-18 05:42:00,64.8,61.2,29.59,South,182,13.0,21.0,88,0.00,,,0.00,0.0,meteobridge,2013-03-18 10:42:00,
2013-03-18 05:47:00,64.9,61.3,29.59,South,178,10.1,23.0,88,0.00,,,0.00,0.0,meteobridge,2013-03-18 10:47:00,
2013-03-18 05:52:00,64.9,61.7,29.59,SSW,197,12.1,19.0,89,0.00,,,0.00,0.0,meteobridge,2013-03-18 10:52:00,
2013-03-18 05:57:00,65.1,61.9,29.59,South,187,19.9,21.9,89,0.00,,,0.00,0.0,meteobridge,2013-03-18 10:57:00,
2013-03-18 06:02:00,65.5,62.4,29.59,South,190,23.0,28.0,90,0.00,,,0.00,0.0,meteobridge,2013-03-18 11:02:00,
2013-03-18 06:07:00,65.5,62.4,29.60,SSW,194,12.1,19.0,90,0.00,,,0.00,0.0,meteobridge,2013-03-18 11:07:00,
2013-03-18 06:12:00,65.7,62.6,29.60,South,175,15.0,25.9,90,0.00,,,0.00,0.0,meteobridge,2013-03-18 11:12:00,
2013-03-18 06:17:00,65.7,62.6,29.60,SSW,199,19.0,23.9,90,0.00,,,0.00,0.0,meteobridge,2013-03-18 11:17:00,
2013-03-18 06:22:00,65.8,62.8,29.60,SSW,213,19.0,25.1,90,0.00,,,0.00,0.0,meteobridge,2013-03-18 11:22:00,
2013-03-18 06:27:00,65.8,62.8,29.60,South,172,15.0,23.9,90,0.00,,,0.00,0.0,meteobridge,2013-03-18 11:27:00,
2013-03-18 06:32:00,66.0,63.0,29.60,SSW,196,14.1,19.0,90,0.00,,,0.00,0.0,meteobridge,2013-03-18 11:32:00,
2013-03-18 06:37:00,66.0,63.0,29.60,South,190,16.1,21.9,90,0.00,,,0.00,0.0,meteobridge,2013-03-18 11:37:00,
2013-03-18 06:42:00,66.0,63.0,29.60,SSW,199,13.0,19.9,90,0.00,,,0.00,0.0,meteobridge,2013-03-18 11:42:00,
2013-03-18 06:47:00,66.2,63.1,29.60,South,179,16.1,19.9,90,0.00,,,0.00,0.0,meteobridge,2013-03-18 11:47:00,
2013-03-18 06:52:00,66.2,63.1,29.61,South,180,19.9,23.9,90,0.00,,,0.00,0.0,meteobridge,2013-03-18 11:52:00,
2013-03-18 06:57:00,66.4,63.7,29.61,South,187,14.1,19.9,91,0.00,,,0.00,0.0,meteobridge,2013-03-18 11:57:00,
2013-03-18 07:02:00,66.4,63.7,29.62,SSW,193,11.0,29.1,91,0.00,,,0.00,0.0,meteobridge,2013-03-18 12:02:00,
2013-03-18 07:07:00,66.4,63.7,29.62,SSW,193,15.0,27.1,91,0.00,,,0.00,0.0,meteobridge,2013-03-18 12:07:00,
2013-03-18 07:12:00,66.6,63.9,29.62,SSW,205,17.0,23.9,91,0.00,,,0.00,0.0,meteobridge,2013-03-18 12:12:00,
2013-03-18 07:18:00,66.6,63.9,29.62,SSW,205,16.1,25.1,91,0.00,,,0.00,0.0,meteobridge,2013-03-18 12:18:00,
2013-03-18 07:23:00,66.6,63.9,29.62,South,183,17.0,25.1,91,0.00,,,0.00,0.0,meteobridge,2013-03-18 12:23:00,
2013-03-18 07:28:00,66.7,64.0,29.62,South,190,17.0,21.9,91,0.00,,,0.00,0.0,meteobridge,2013-03-18 12:28:00,
2013-03-18 07:33:00,66.7,64.0,29.62,South,190,19.0,21.0,91,0.00,,,0.00,0.0,meteobridge,2013-03-18 12:33:00,
2013-03-18 07:38:00,66.7,64.0,29.62,SSW,200,15.0,25.9,91,0.00,,,0.00,0.0,meteobridge,2013-03-18 12:38:00,
2013-03-18 07:43:00,66.9,64.2,29.63,SSW,212,13.0,15.0,91,0.00,,,0.00,7.0,meteobridge,2013-03-18 12:43:00,
2013-03-18 07:48:00,67.1,64.4,29.63,SSW,205,13.0,21.9,91,0.00,,,0.00,11.0,meteobridge,2013-03-18 12:48:00,
2013-03-18 07:53:00,67.3,64.6,29.63,SSW,208,13.0,23.0,91,0.00,,,0.00,18.0,meteobridge,2013-03-18 12:53:00,
2013-03-18 07:58:00,67.3,64.2,29.65,SSW,208,16.1,21.0,90,0.00,,,0.00,21.0,meteobridge,2013-03-18 12:58:00,
2013-03-18 08:03:00,67.5,64.4,29.66,SSW,198,16.1,23.0,90,0.00,,,0.00,25.0,meteobridge,2013-03-18 13:03:00,
2013-03-18 08:08:00,67.5,64.4,29.67,SW,236,6.9,16.1,90,0.00,,,0.00,19.0,meteobridge,2013-03-18 13:08:00,
2013-03-18 08:13:00,67.6,64.6,29.68,WSW,245,6.9,10.1,90,0.00,,,0.00,18.0,meteobridge,2013-03-18 13:13:00,
2013-03-18 08:18:00,67.6,64.6,29.70,WNW,300,4.0,6.9,90,0.00,,,0.00,12.0,meteobridge,2013-03-18 13:18:00,
2013-03-18 08:23:00,67.6,64.6,29.71,NW,309,2.9,11.0,90,0.00,,,0.00,5.0,meteobridge,2013-03-18 13:23:00,
2013-03-18 08:29:00,67.8,64.8,29.72,WNW,284,6.9,10.1,90,0.00,,,0.00,5.0,meteobridge,2013-03-18 13:29:00,
2013-03-18 08:34:00,67.8,64.8,29.72,WSW,238,4.9,6.0,90,0.00,,,0.00,5.0,meteobridge,2013-03-18 13:34:00,
2013-03-18 08:39:00,67.8,64.8,29.72,WNW,301,2.0,6.0,90,0.00,,,0.00,9.0,meteobridge,2013-03-18 13:39:00,
2013-03-18 08:44:00,67.6,64.6,29.72,WSW,250,4.9,8.9,90,0.00,,,0.00,14.0,meteobridge,2013-03-18 13:44:00,
2013-03-18 08:49:00,66.9,63.5,29.72,WNW,294,0.0,4.9,89,0.00,,,0.00,76.0,meteobridge,2013-03-18 13:49:00,
2013-03-18 08:54:00,66.6,63.5,29.72,NW,310,2.0,6.0,90,0.00,,,0.00,98.0,meteobridge,2013-03-18 13:54:00,
2013-03-18 08:59:00,66.4,63.3,29.73,NW,317,2.9,6.9,90,0.00,,,0.00,84.0,meteobridge,2013-03-18 13:59:00,
2013-03-18 09:04:00,66.0,63.0,29.74,NNW,329,8.9,11.0,90,0.00,,,0.00,28.0,meteobridge,2013-03-18 14:04:00,
2013-03-18 09:09:00,64.6,60.6,29.75,NNW,340,17.9,19.0,87,0.00,,,0.00,19.0,meteobridge,2013-03-18 14:09:00,
2013-03-18 09:14:00,62.1,57.7,29.75,North,355,10.1,12.1,86,0.00,,,0.00,69.0,meteobridge,2013-03-18 14:14:00,
2013-03-18 09:19:00,60.4,55.9,29.76,North,9,15.0,19.0,85,0.00,,,0.00,39.0,meteobridge,2013-03-18 14:19:00,
2013-03-18 09:24:00,59.0,54.5,29.76,NNW,348,13.0,17.0,85,0.00,,,0.00,74.0,meteobridge,2013-03-18 14:24:00,
2013-03-18 09:29:00,57.9,53.8,29.76,NNW,346,8.9,13.0,86,0.00,,,0.00,125.0,meteobridge,2013-03-18 14:29:00,
2013-03-18 09:34:00,57.4,53.2,29.77,North,349,12.1,17.9,86,0.00,,,0.00,76.0,meteobridge,2013-03-18 14:34:00,
2013-03-18 09:39:00,56.7,52.5,29.77,NNW,334,15.0,16.1,86,0.00,,,0.00,190.0,meteobridge,2013-03-18 14:39:00,
2013-03-18 09:44:00,56.1,52.0,29.78,North,5,10.1,17.9,86,0.00,,,0.00,123.0,meteobridge,2013-03-18 14:44:00,
2013-03-18 09:49:00,55.8,51.6,29.78,North,0,10.1,17.0,86,0.00,,,0.00,91.0,meteobridge,2013-03-18 14:49:00,
2013-03-18 09:54:00,55.4,51.6,29.78,North,355,11.0,17.9,87,0.00,,,0.00,102.0,meteobridge,2013-03-18 14:54:00,
2013-03-18 09:59:00,55.0,51.3,29.79,North,5,11.0,19.9,87,0.00,,,0.00,105.0,meteobridge,2013-03-18 14:59:00,
2013-03-18 10:04:00,55.0,51.3,29.78,NNE,19,8.1,10.1,87,0.00,,,0.00,174.0,meteobridge,2013-03-18 15:04:00,
2013-03-18 10:09:00,55.6,52.2,29.78,NNE,19,6.9,12.1,88,0.00,,,0.00,260.0,meteobridge,2013-03-18 15:09:00,
2013-03-18 10:14:00,56.3,52.5,29.79,NE,36,11.0,16.1,87,0.00,,,0.00,309.0,meteobridge,2013-03-18 15:14:00,
2013-03-18 10:20:00,56.1,52.0,29.78,NNE,29,6.9,13.0,86,0.00,,,0.00,239.0,meteobridge,2013-03-18 15:20:00,
2013-03-18 10:25:00,57.4,53.2,29.79,North,10,6.9,10.1,86,0.00,,,0.00,439.0,meteobridge,2013-03-18 15:25:00,
2013-03-18 10:29:00,57.7,53.2,29.79,North,5,8.9,15.0,85,0.00,,,0.00,190.0,meteobridge,2013-03-18 15:29:00,
2013-03-18 10:35:00,57.7,52.9,29.80,North,351,10.1,13.0,84,0.00,,,0.00,200.0,meteobridge,2013-03-18 15:35:00,
2013-03-18 10:40:00,57.7,52.9,29.79,North,355,8.9,11.0,84,0.00,,,0.00,388.0,meteobridge,2013-03-18 15:40:00,
2013-03-18 10:45:00,58.3,53.1,29.80,North,0,8.9,11.0,83,0.00,,,0.00,248.0,meteobridge,2013-03-18 15:45:00,
2013-03-18 10:50:00,58.6,53.2,29.80,North,355,6.0,10.1,82,0.00,,,0.00,237.0,meteobridge,2013-03-18 15:50:00,
2013-03-18 10:55:00,58.6,52.9,29.80,North,0,6.0,10.1,81,0.00,,,0.00,626.0,meteobridge,2013-03-18 15:55:00,
2013-03-18 11:00:00,60.3,54.3,29.80,NNE,23,6.0,12.1,81,0.00,,,0.00,788.0,meteobridge,2013-03-18 16:00:00,
2013-03-18 11:05:00,60.6,53.8,29.80,NNE,32,4.9,8.9,78,0.00,,,0.00,262.0,meteobridge,2013-03-18 16:05:00,
2013-03-18 11:10:00,61.5,54.3,29.80,North,355,4.9,11.0,77,0.00,,,0.00,531.0,meteobridge,2013-03-18 16:10:00,
2013-03-18 11:15:00,61.3,54.1,29.81,NNW,339,6.0,12.1,77,0.00,,,0.00,726.0,meteobridge,2013-03-18 16:15:00,
2013-03-18 11:20:00,62.1,54.3,29.81,NNW,344,10.1,12.1,76,0.00,,,0.00,726.0,meteobridge,2013-03-18 16:20:00,
2013-03-18 11:25:00,62.4,54.3,29.81,North,350,4.0,13.0,75,0.00,,,0.00,687.0,meteobridge,2013-03-18 16:25:00,
2013-03-18 11:30:00,63.0,54.9,29.80,NNW,344,12.1,15.0,75,0.00,,,0.00,710.0,meteobridge,2013-03-18 16:30:00,
2013-03-18 11:35:00,64.0,55.6,29.80,North,0,6.0,8.9,74,0.00,,,0.00,726.0,meteobridge,2013-03-18 16:35:00,
2013-03-18 11:41:00,64.6,55.0,29.81,NNE,21,8.9,12.1,71,0.00,,,0.00,733.0,meteobridge,2013-03-18 16:41:00,
2013-03-18 11:46:00,65.1,55.0,29.80,North,355,4.0,12.1,70,0.00,,,0.00,749.0,meteobridge,2013-03-18 16:46:00,
2013-03-18 11:51:00,66.0,55.9,29.80,North,355,6.0,11.0,70,0.00,,,0.00,758.0,meteobridge,2013-03-18 16:51:00,
2013-03-18 11:56:00,66.0,54.7,29.80,NNW,348,10.1,14.1,67,0.00,,,0.00,768.0,meteobridge,2013-03-18 16:56:00,
2013-03-18 12:01:00,66.6,56.1,29.80,North,9,10.1,13.0,69,0.00,,,0.00,775.0,meteobridge,2013-03-18 17:01:00,
2013-03-18 12:06:00,67.3,55.6,29.80,North,0,8.9,17.0,66,0.00,,,0.00,786.0,meteobridge,2013-03-18 17:06:00,
2013-03-18 12:11:00,67.6,55.0,29.81,NNW,344,12.1,17.9,64,0.00,,,0.00,800.0,meteobridge,2013-03-18 17:11:00,
2013-03-18 12:16:00,67.6,54.7,29.81,North,0,14.1,21.0,63,0.00,,,0.00,807.0,meteobridge,2013-03-18 17:16:00,
2013-03-18 12:21:00,68.0,55.4,29.81,North,0,13.0,17.0,64,0.00,,,0.00,814.0,meteobridge,2013-03-18 17:21:00,
2013-03-18 12:26:00,68.0,54.5,29.81,North,0,11.0,17.0,62,0.00,,,0.00,828.0,meteobridge,2013-03-18 17:26:00,
2013-03-18 12:31:00,68.5,55.4,29.81,NNE,19,8.9,15.0,63,0.00,,,0.00,833.0,meteobridge,2013-03-18 17:31:00,
2013-03-18 12:36:00,69.1,55.0,29.81,North,0,16.1,17.9,61,0.00,,,0.00,840.0,meteobridge,2013-03-18 17:36:00,
2013-03-18 12:41:00,68.2,53.8,29.82,NNW,345,10.1,14.1,60,0.00,,,0.00,849.0,meteobridge,2013-03-18 17:41:00,
2013-03-18 12:47:00,67.8,53.4,29.82,North,0,12.1,16.1,60,0.00,,,0.00,856.0,meteobridge,2013-03-18 17:47:00,
2013-03-18 12:52:00,68.5,54.1,29.82,NNE,17,11.0,12.1,60,0.00,,,0.00,860.0,meteobridge,2013-03-18 17:52:00,
2013-03-18 12:57:00,69.1,53.6,29.82,NNE,13,10.1,12.1,58,0.00,,,0.00,865.0,meteobridge,2013-03-18 17:57:00,
2013-03-18 13:02:00,68.4,52.0,29.82,North,0,13.0,17.0,56,0.00,,,0.00,863.0,meteobridge,2013-03-18 18:02:00,
2013-03-18 13:07:00,68.7,53.4,29.82,NNW,344,6.0,15.0,58,0.00,,,0.00,865.0,meteobridge,2013-03-18 18:07:00,
2013-03-18 13:12:00,68.5,52.7,29.82,North,5,8.9,16.1,57,0.00,,,0.00,867.0,meteobridge,2013-03-18 18:12:00,
2013-03-18 13:17:00,68.2,51.8,29.83,North,355,10.1,17.9,56,0.00,,,0.00,872.0,meteobridge,2013-03-18 18:17:00,
2013-03-18 13:22:00,68.2,52.3,29.82,North,0,14.1,14.1,57,0.00,,,0.00,877.0,meteobridge,2013-03-18 18:22:00,
2013-03-18 13:27:00,68.0,52.7,29.82,NNE,17,11.0,14.1,58,0.00,,,0.00,881.0,meteobridge,2013-03-18 18:27:00,
2013-03-18 13:32:00,68.4,53.1,29.82,North,5,13.0,15.0,58,0.00,,,0.00,882.0,meteobridge,2013-03-18 18:32:00,
2013-03-18 13:37:00,68.5,52.2,29.82,North,11,12.1,14.1,56,0.00,,,0.00,886.0,meteobridge,2013-03-18 18:37:00,
2013-03-18 13:42:00,69.4,53.1,29.82,NNE,17,10.1,14.1,56,0.00,,,0.00,888.0,meteobridge,2013-03-18 18:42:00,
2013-03-18 13:47:00,69.1,53.2,29.82,North,5,8.1,16.1,57,0.00,,,0.00,889.0,meteobridge,2013-03-18 18:47:00,
2013-03-18 13:52:00,68.2,52.3,29.82,NNE,13,11.0,17.0,57,0.00,,,0.00,888.0,meteobridge,2013-03-18 18:52:00,
2013-03-18 13:57:00,68.2,52.3,29.82,North,0,13.0,17.0,57,0.00,,,0.00,886.0,meteobridge,2013-03-18 18:57:00,
2013-03-18 14:02:00,68.2,52.9,29.82,North,5,8.9,16.1,58,0.00,,,0.00,886.0,meteobridge,2013-03-18 19:02:00,
2013-03-18 14:07:00,68.5,52.2,29.82,NNE,17,12.1,16.1,56,0.00,,,0.00,882.0,meteobridge,2013-03-18 19:07:00,
2013-03-18 14:12:00,68.4,53.1,29.82,North,355,6.0,15.0,58,0.00,,,0.00,882.0,meteobridge,2013-03-18 19:12:00,
2013-03-18 14:17:00,68.2,52.3,29.82,NNE,12,11.0,16.1,57,0.00,,,0.00,882.0,meteobridge,2013-03-18 19:17:00,
2013-03-18 14:22:00,68.2,51.4,29.82,North,355,13.0,15.0,55,0.00,,,0.00,877.0,meteobridge,2013-03-18 19:22:00,
2013-03-18 14:27:00,67.6,52.3,29.82,North,355,8.9,15.0,58,0.00,,,0.00,874.0,meteobridge,2013-03-18 19:27:00,
2013-03-18 14:32:00,68.2,52.3,29.81,North,5,8.1,17.0,57,0.00,,,0.00,870.0,meteobridge,2013-03-18 19:32:00,
2013-03-18 14:37:00,68.5,52.2,29.81,North,5,8.9,15.0,56,0.00,,,0.00,863.0,meteobridge,2013-03-18 19:37:00,
2013-03-18 14:42:00,69.3,52.9,29.81,North,5,4.9,13.0,56,0.00,,,0.00,860.0,meteobridge,2013-03-18 19:42:00,
2013-03-18 14:47:00,68.7,51.4,29.81,North,9,12.1,14.1,54,0.00,,,0.00,853.0,meteobridge,2013-03-18 19:47:00,
2013-03-18 14:52:00,68.5,52.2,29.81,North,5,14.1,17.0,56,0.00,,,0.00,846.0,meteobridge,2013-03-18 19:52:00,
2013-03-18 14:57:00,68.7,51.4,29.81,North,0,15.0,15.0,54,0.00,,,0.00,842.0,meteobridge,2013-03-18 19:57:00,
2013-03-18 15:02:00,68.4,51.6,29.80,North,5,11.0,15.0,55,0.00,,,0.00,833.0,meteobridge,2013-03-18 20:02:00,
2013-03-18 15:08:00,68.4,52.0,29.80,North,355,8.9,11.0,56,0.00,,,0.00,828.0,meteobridge,2013-03-18 20:08:00,
2013-03-18 15:13:00,68.7,49.8,29.80,NNE,17,11.0,14.1,51,0.00,,,0.00,819.0,meteobridge,2013-03-18 20:13:00,
2013-03-18 15:18:00,68.7,50.4,29.80,North,355,8.9,16.1,52,0.00,,,0.00,810.0,meteobridge,2013-03-18 20:18:00,
2013-03-18 15:23:00,69.4,51.6,29.80,NNW,348,15.0,17.0,53,0.00,,,0.00,803.0,meteobridge,2013-03-18 20:23:00,
2013-03-18 15:28:00,70.0,52.5,29.80,NNW,348,8.9,13.0,54,0.00,,,0.00,793.0,meteobridge,2013-03-18 20:28:00,
2013-03-18 15:33:00,70.2,51.3,29.80,North,349,8.9,17.9,51,0.00,,,0.00,782.0,meteobridge,2013-03-18 20:33:00,
2013-03-18 15:38:00,69.6,50.2,29.80,North,351,10.1,16.1,50,0.00,,,0.00,770.0,meteobridge,2013-03-18 20:38:00,
2013-03-18 15:43:00,69.3,50.9,29.80,North,355,12.1,19.0,52,0.00,,,0.00,759.0,meteobridge,2013-03-18 20:43:00,
2013-03-18 15:48:00,69.6,50.7,29.80,NNW,346,6.9,16.1,51,0.00,,,0.00,749.0,meteobridge,2013-03-18 20:48:00,
2013-03-18 15:53:00,69.6,50.7,29.80,North,350,13.0,15.0,51,0.00,,,0.00,738.0,meteobridge,2013-03-18 20:53:00,
2013-03-18 15:58:00,69.3,50.9,29.80,North,355,8.1,13.0,52,0.00,,,0.00,726.0,meteobridge,2013-03-18 20:58:00,
2013-03-18 16:03:00,70.5,51.4,29.80,NNW,348,14.1,15.0,51,0.00,,,0.00,715.0,meteobridge,2013-03-18 21:03:00,
2013-03-18 16:09:00,70.9,51.8,29.80,North,0,8.9,11.0,51,0.00,,,0.00,703.0,meteobridge,2013-03-18 21:09:00,
2013-03-18 16:14:00,71.1,50.4,29.81,North,0,12.1,15.0,48,0.00,,,0.00,698.0,meteobridge,2013-03-18 21:14:00,
2013-03-18 16:19:00,70.7,51.1,29.81,North,350,10.1,13.0,50,0.00,,,0.00,657.0,meteobridge,2013-03-18 21:19:00,
2013-03-18 16:24:00,70.2,50.7,29.81,North,0,11.0,17.0,50,0.00,,,0.00,550.0,meteobridge,2013-03-18 21:24:00,
2013-03-18 16:29:00,70.3,50.4,29.81,North,355,12.1,12.1,49,0.00,,,0.00,656.0,meteobridge,2013-03-18 21:29:00,
2013-03-18 16:34:00,70.2,50.7,29.81,North,9,8.1,12.1,50,0.00,,,0.00,636.0,meteobridge,2013-03-18 21:34:00,
2013-03-18 16:39:00,70.5,50.4,29.81,North,5,13.0,13.0,49,0.00,,,0.00,621.0,meteobridge,2013-03-18 21:39:00,
2013-03-18 16:44:00,70.3,50.9,29.82,NNW,346,6.0,14.1,50,0.00,,,0.00,615.0,meteobridge,2013-03-18 21:44:00,
2013-03-18 16:49:00,70.9,50.2,29.82,North,10,8.1,15.0,48,0.00,,,0.00,476.0,meteobridge,2013-03-18 21:49:00,
2013-03-18 16:54:00,70.3,50.9,29.82,North,5,13.0,14.1,50,0.00,,,0.00,431.0,meteobridge,2013-03-18 21:54:00,
2013-03-18 16:59:00,70.0,50.0,29.83,NNE,21,4.0,13.0,49,0.00,,,0.00,557.0,meteobridge,2013-03-18 21:59:00,
2013-03-18 17:04:00,70.3,49.6,29.82,North,355,6.0,11.0,48,0.00,,,0.00,399.0,meteobridge,2013-03-18 22:04:00,
2013-03-18 17:09:00,70.0,50.5,29.83,NNW,346,11.0,13.0,50,0.00,,,0.00,510.0,meteobridge,2013-03-18 22:09:00,
2013-03-18 17:14:00,69.8,50.4,29.83,North,5,6.0,11.0,50,0.00,,,0.00,443.0,meteobridge,2013-03-18 22:14:00,
2013-03-18 17:19:00,70.2,50.2,29.83,North,5,8.9,16.1,49,0.00,,,0.00,499.0,meteobridge,2013-03-18 22:19:00,
2013-03-18 17:24:00,70.3,49.6,29.83,NNW,347,11.0,15.0,48,0.00,,,0.00,432.0,meteobridge,2013-03-18 22:24:00,
2013-03-18 17:29:00,70.3,49.6,29.83,NNE,13,6.9,17.0,48,0.00,,,0.00,403.0,meteobridge,2013-03-18 22:29:00,
2013-03-18 17:34:00,70.0,50.0,29.83,North,0,11.0,13.0,49,0.00,,,0.00,339.0,meteobridge,2013-03-18 22:34:00,
2013-03-18 17:40:00,69.6,49.6,29.84,NNE,28,12.1,15.0,49,0.00,,,0.00,276.0,meteobridge,2013-03-18 22:40:00,
2013-03-18 17:45:00,69.1,49.1,29.84,North,350,10.1,14.1,49,0.00,,,0.00,181.0,meteobridge,2013-03-18 22:45:00,
2013-03-18 17:50:00,68.5,49.1,29.84,NNW,348,14.1,14.1,50,0.00,,,0.00,163.0,meteobridge,2013-03-18 22:50:00,
2013-03-18 17:55:00,68.2,48.9,29.84,NNW,346,8.9,13.0,50,0.00,,,0.00,185.0,meteobridge,2013-03-18 22:55:00,
2013-03-18 18:00:00,68.0,48.7,29.84,North,349,8.9,14.1,50,0.00,,,0.00,202.0,meteobridge,2013-03-18 23:00:00,
2013-03-18 18:05:00,68.0,49.3,29.85,North,351,11.0,14.1,51,0.00,,,0.00,220.0,meteobridge,2013-03-18 23:05:00,
2013-03-18 18:10:00,68.2,49.3,29.85,North,355,6.0,13.0,51,0.00,,,0.00,202.0,meteobridge,2013-03-18 23:10:00,
2013-03-18 18:15:00,68.0,49.6,29.85,North,355,6.0,10.1,52,0.00,,,0.00,176.0,meteobridge,2013-03-18 23:15:00,
2013-03-18 18:20:00,67.6,49.5,29.85,North,5,6.0,10.1,52,0.00,,,0.00,111.0,meteobridge,2013-03-18 23:20:00,
2013-03-18 18:25:00,67.3,49.1,29.85,North,5,11.0,11.0,52,0.00,,,0.00,118.0,meteobridge,2013-03-18 23:25:00,
2013-03-18 18:30:00,67.1,48.9,29.85,North,350,8.9,12.1,52,0.00,,,0.00,93.0,meteobridge,2013-03-18 23:30:00,
2013-03-18 18:35:00,66.9,48.2,29.85,North,0,4.0,12.1,51,0.00,,,0.00,97.0,meteobridge,2013-03-18 23:35:00,
2013-03-18 18:40:00,66.7,49.1,29.86,North,355,4.9,6.9,53,0.00,,,0.00,90.0,meteobridge,2013-03-18 23:40:00,
2013-03-18 18:45:00,66.6,49.5,29.86,NE,42,10.1,10.1,54,0.00,,,0.00,83.0,meteobridge,2013-03-18 23:45:00,
2013-03-18 18:50:00,66.4,48.2,29.86,NNE,32,8.9,13.0,52,0.00,,,0.00,62.0,meteobridge,2013-03-18 23:50:00,
2013-03-18 18:55:00,66.2,48.6,29.86,NNE,33,11.0,11.0,53,0.00,,,0.00,54.0,meteobridge,2013-03-18 23:55:00,
2013-03-18 19:00:00,66.0,48.4,29.86,NNE,28,4.9,10.1,53,0.00,,,0.00,49.0,meteobridge,2013-03-19 00:00:00,
2013-03-18 19:06:00,65.7,48.6,29.86,NE,38,6.0,10.1,54,0.00,,,0.00,40.0,meteobridge,2013-03-19 00:06:00,
2013-03-18 19:11:00,65.1,48.0,29.86,NE,43,6.9,10.1,54,0.00,,,0.00,28.0,meteobridge,2013-03-19 00:11:00,
2013-03-18 19:16:00,64.9,47.5,29.87,NNE,33,6.9,8.9,53,0.00,,,0.00,23.0,meteobridge,2013-03-19 00:16:00,
2013-03-18 19:21:00,64.8,47.3,29.87,NE,34,6.0,10.1,53,0.00,,,0.00,14.0,meteobridge,2013-03-19 00:21:00,
2013-03-18 19:26:00,64.6,47.1,29.88,NE,38,6.9,6.9,53,0.00,,,0.00,9.0,meteobridge,2013-03-19 00:26:00,
2013-03-18 19:31:00,64.2,46.8,29.88,NE,42,6.0,8.9,53,0.00,,,0.00,5.0,meteobridge,2013-03-19 00:31:00,
2013-03-18 19:36:00,63.9,46.4,29.87,NNE,29,6.0,10.1,53,0.00,,,0.00,0.0,meteobridge,2013-03-19 00:36:00,
2013-03-18 19:41:00,63.7,46.2,29.87,NE,41,2.9,8.9,53,0.00,,,0.00,0.0,meteobridge,2013-03-19 00:41:00,
2013-03-18 19:46:00,63.3,45.9,29.87,NE,37,6.9,6.9,53,0.00,,,0.00,0.0,meteobridge,2013-03-19 00:46:00,
2013-03-18 19:51:00,63.0,46.0,29.88,NNE,22,2.9,6.0,54,0.00,,,0.00,0.0,meteobridge,2013-03-19 00:51:00,
2013-03-18 19:56:00,62.4,45.5,29.88,North,355,4.9,6.9,54,0.00,,,0.00,0.0,meteobridge,2013-03-19 00:56:00,
2013-03-18 20:02:00,62.2,45.3,29.88,North,355,6.0,6.9,54,0.00,,,0.00,0.0,meteobridge,2013-03-19 01:02:00,
2013-03-18 20:07:00,62.1,45.7,29.88,NNE,28,4.0,4.0,55,0.00,,,0.00,0.0,meteobridge,2013-03-19 01:07:00,
2013-03-18 20:12:00,61.7,45.3,29.89,North,5,2.9,6.9,55,0.00,,,0.00,0.0,meteobridge,2013-03-19 01:12:00,
2013-03-18 20:17:00,61.2,45.3,29.90,NNE,13,4.9,6.0,56,0.00,,,0.00,0.0,meteobridge,2013-03-19 01:17:00,
2013-03-18 20:22:00,61.3,45.5,29.90,North,350,2.9,6.9,56,0.00,,,0.00,0.0,meteobridge,2013-03-19 01:22:00,
2013-03-18 20:27:00,61.2,45.3,29.91,North,349,4.0,6.0,56,0.00,,,0.00,0.0,meteobridge,2013-03-19 01:27:00,
2013-03-18 20:32:00,60.8,45.0,29.91,North,355,6.0,6.9,56,0.00,,,0.00,0.0,meteobridge,2013-03-19 01:32:00,
2013-03-18 20:37:00,60.6,44.8,29.92,North,351,6.0,6.0,56,0.00,,,0.00,0.0,meteobridge,2013-03-19 01:37:00,
2013-03-18 20:43:00,60.6,44.8,29.92,North,350,4.0,6.9,56,0.00,,,0.00,0.0,meteobridge,2013-03-19 01:43:00,
2013-03-18 20:48:00,60.4,44.6,29.93,NNW,348,6.0,8.1,56,0.00,,,0.00,0.0,meteobridge,2013-03-19 01:48:00,
2013-03-18 20:53:00,60.4,44.2,29.93,North,355,4.9,10.1,55,0.00,,,0.00,0.0,meteobridge,2013-03-19 01:53:00,
2013-03-18 20:58:00,60.3,44.4,29.93,NNW,348,4.9,6.0,56,0.00,,,0.00,0.0,meteobridge,2013-03-19 01:58:00,
2013-03-18 21:03:00,59.9,44.2,29.94,NNW,346,6.0,6.9,56,0.00,,,0.00,0.0,meteobridge,2013-03-19 02:03:00,
2013-03-18 21:08:00,59.7,44.4,29.94,North,355,4.9,8.9,57,0.00,,,0.00,0.0,meteobridge,2013-03-19 02:08:00,
2013-03-18 21:13:00,59.7,44.4,29.94,NNW,340,8.1,8.9,57,0.00,,,0.00,0.0,meteobridge,2013-03-19 02:13:00,
2013-03-18 21:18:00,59.5,44.2,29.95,North,0,4.9,6.9,57,0.00,,,0.00,0.0,meteobridge,2013-03-19 02:18:00,
2013-03-18 21:23:00,59.2,43.9,29.95,North,5,4.9,8.9,57,0.00,,,0.00,0.0,meteobridge,2013-03-19 02:23:00,
2013-03-18 21:28:00,59.0,43.7,29.95,North,0,8.9,12.1,57,0.00,,,0.00,0.0,meteobridge,2013-03-19 02:28:00,
2013-03-18 21:33:00,58.8,43.2,29.95,North,0,6.0,8.9,56,0.00,,,0.00,0.0,meteobridge,2013-03-19 02:33:00,
2013-03-18 21:38:00,58.5,42.4,29.95,North,5,4.9,10.1,55,0.00,,,0.00,0.0,meteobridge,2013-03-19 02:38:00,
2013-03-18 21:43:00,58.3,42.3,29.96,North,11,6.0,6.0,55,0.00,,,0.00,0.0,meteobridge,2013-03-19 02:43:00,
2013-03-18 21:48:00,57.9,41.4,29.96,North,0,6.0,12.1,54,0.00,,,0.00,0.0,meteobridge,2013-03-19 02:48:00,
2013-03-18 21:53:00,57.9,41.4,29.96,North,5,8.9,8.9,54,0.00,,,0.00,0.0,meteobridge,2013-03-19 02:53:00,
2013-03-18 21:58:00,57.7,41.2,29.96,NNE,15,4.9,6.9,54,0.00,,,0.00,0.0,meteobridge,2013-03-19 02:58:00,
2013-03-18 22:03:00,57.6,41.0,29.96,North,11,4.9,10.1,54,0.00,,,0.00,0.0,meteobridge,2013-03-19 03:03:00,
2013-03-18 22:08:00,57.4,40.8,29.96,NE,40,6.0,8.9,54,0.00,,,0.00,0.0,meteobridge,2013-03-19 03:08:00,
2013-03-18 22:14:00,57.0,41.0,29.96,NNE,12,2.9,8.9,55,0.00,,,0.00,0.0,meteobridge,2013-03-19 03:14:00,
2013-03-18 22:19:00,56.7,40.6,29.97,North,11,4.9,10.1,55,0.00,,,0.00,0.0,meteobridge,2013-03-19 03:19:00,
2013-03-18 22:24:00,56.1,40.6,29.97,NNE,21,4.0,6.0,56,0.00,,,0.00,0.0,meteobridge,2013-03-19 03:24:00,
2013-03-18 22:29:00,55.8,40.3,29.97,NE,38,4.0,12.1,56,0.00,,,0.00,0.0,meteobridge,2013-03-19 03:29:00,
2013-03-18 22:34:00,55.8,40.3,29.97,NE,43,6.0,12.1,56,0.00,,,0.00,0.0,meteobridge,2013-03-19 03:34:00,
2013-03-18 22:39:00,55.9,39.9,29.97,NNE,33,4.0,8.1,55,0.00,,,0.00,0.0,meteobridge,2013-03-19 03:39:00,
2013-03-18 22:44:00,55.8,39.9,29.97,NNE,25,8.1,10.1,55,0.00,,,0.00,0.0,meteobridge,2013-03-19 03:44:00,
2013-03-18 22:49:00,55.6,40.1,29.97,NNE,20,6.0,8.1,56,0.00,,,0.00,0.0,meteobridge,2013-03-19 03:49:00,
2013-03-18 22:54:00,55.2,39.7,29.97,NE,44,2.9,6.0,56,0.00,,,0.00,0.0,meteobridge,2013-03-19 03:54:00,
2013-03-18 22:59:00,55.0,40.1,29.97,NE,42,4.0,4.9,57,0.00,,,0.00,0.0,meteobridge,2013-03-19 03:59:00,
2013-03-18 23:00:00,55.0,40.1,29.97,NE,43,2.0,4.9,57,0.00,,,0.00,0.0,meteobridge,2013-03-19 04:00:00,
2013-03-18 23:01:00,54.9,40.3,29.97,NE,44,2.9,4.9,58,0.00,,,0.00,0.0,meteobridge,2013-03-19 04:01:00,
2013-03-18 23:02:00,54.9,40.3,29.97,NE,44,2.0,4.9,58,0.00,,,0.00,0.0,meteobridge,2013-03-19 04:02:00,
2013-03-18 23:07:00,54.5,40.1,29.97,NE,40,4.0,8.1,58,0.00,,,0.00,0.0,meteobridge,2013-03-19 04:07:00,
2013-03-18 23:12:00,54.3,40.3,29.97,NE,46,6.0,8.9,59,0.00,,,0.00,0.0,meteobridge,2013-03-19 04:12:00,
2013-03-18 23:17:00,54.3,40.3,29.97,NE,49,4.9,6.9,59,0.00,,,0.00,0.0,meteobridge,2013-03-19 04:17:00,
2013-03-18 23:22:00,54.1,40.1,29.97,NE,41,4.0,6.9,59,0.00,,,0.00,0.0,meteobridge,2013-03-19 04:22:00,
2013-03-18 23:27:00,54.0,40.5,29.96,NE,44,4.0,6.9,60,0.00,,,0.00,0.0,meteobridge,2013-03-19 04:27:00,
2013-03-18 23:32:00,54.0,40.5,29.97,NE,37,4.9,10.1,60,0.00,,,0.00,0.0,meteobridge,2013-03-19 04:32:00,
2013-03-18 23:37:00,53.8,40.3,29.97,NE,38,8.1,8.9,60,0.00,,,0.00,0.0,meteobridge,2013-03-19 04:37:00,
2013-03-18 23:42:00,53.8,40.3,29.97,NE,50,6.9,11.0,60,0.00,,,0.00,0.0,meteobridge,2013-03-19 04:42:00,
2013-03-18 23:47:00,53.8,39.7,29.97,NNE,28,6.0,8.9,59,0.00,,,0.00,0.0,meteobridge,2013-03-19 04:47:00,
2013-03-18 23:52:00,53.4,39.9,29.97,NE,36,4.9,6.9,60,0.00,,,0.00,0.0,meteobridge,2013-03-19 04:52:00,
2013-03-18 23:57:00,53.4,39.9,29.97,NNE,32,4.9,10.1,60,0.00,,,0.00,0.0,meteobridge,2013-03-19 04:57:00,